Terminal Aerodrome Forecast
Issued by NWS

Home | Current Version | Previous Version | Text Only | Print | Product List | Glossary On
Versions: 1 2 3 4 5 6 7 8 9 10 11 12 13 14 15 16 17 18 19 20 21 22 23 24 25
835
FTAK31 PANC 300534
TAFAIL
TAF
PAIL 300534Z 3006/0106 09013G23KT P6SM VCSH SCT030 BKN050 BKN130
     FM301200 06014G23KT P6SM SCT050 OVC100 WS020/09035KT
     FM302100 04015G23KT P6SM SCT050 BKN100=

USA.gov is the U.S. government's official web portal to all federal, state and local government web resources and services.